Time;durP1;ratioP1;P1;durP2;ratioP2;P2;SDS_P1;SDS_P2;PMS_P1;PMS_P2;Temp;Humidity;BMP_temperature;BMP_pressure;BME280_temperature;BME280_humidity;BME280_pressure;Samples;Min_cycle;Max_cycle;Signal;HPM_P1;HPM_P2
2023/07/07 00:00:09;;;;;;;8.13;4.55;;;;;;;;;;4947447;29;20054;-96
2023/07/07 00:02:47;;;;;;;7.65;4.75;;;;;;;;;;4946512;29;20043;-95
2023/07/07 00:05:20;;;;;;;9.00;4.70;;;;;;;;;;4946082;29;20042;-96
2023/07/07 00:10:35;;;;;;;9.30;4.70;;;;;;;;;;4961677;29;20031;-95
2023/07/07 00:13:08;;;;;;;13.15;4.95;;;;;;;;;;4945252;29;20079;-96
2023/07/07 00:18:32;;;;;;;12.35;5.30;;;;;;;;;;5069018;23;20074;-94
2023/07/07 00:21:02;;;;;;;7.93;5.22;;;;;;;;;;4944269;29;20496;-96
2023/07/07 00:23:37;;;;;;;7.68;4.72;;;;;;;;;;4944214;29;20043;-95
2023/07/07 00:26:10;;;;;;;9.13;4.75;;;;;;;;;;4943951;29;20091;-95
2023/07/07 00:28:39;;;;;;;7.82;4.70;;;;;;;;;;4943401;29;20042;-94
2023/07/07 00:31:41;;;;;;;;;;;;;;;;;;;;;
2023/07/07 00:34:11;;;;;;;9.13;4.70;;;;;;;;;;4961466;29;20122;-93
2023/07/07 00:36:46;;;;;;;8.07;5.05;;;;;;;;;;4946657;29;20039;-95
2023/07/07 00:39:15;;;;;;;9.48;5.07;;;;;;;;;;4944710;29;20043;-94
2023/07/07 00:41:41;;;;;;;7.97;4.90;;;;;;;;;;4944755;29;20085;-96
2023/07/07 00:44:40;;;;;;;11.05;4.57;;;;;;;;;;4946582;29;20035;-96
2023/07/07 00:47:15;;;;;;;7.60;4.53;;;;;;;;;;4883888;29;20409;-96
2023/07/07 00:50:00;;;;;;;;;;;;;;;;;;;;;
2023/07/07 00:53:20;;;;;;;;;;;;;;;;;;;;;
2023/07/07 00:56:07;;;;;;;9.18;5.20;;;;;;;;;;4883677;29;20021;-94
2023/07/07 00:59:14;;;;;;;9.82;4.97;;;;;;;;;;4883226;29;20492;-95
2023/07/07 01:05:05;;;;;;;8.60;4.80;;;;;;;;;;4885136;29;20051;-94
2023/07/07 01:07:51;;;;;;;9.32;4.95;;;;;;;;;;4883040;29;20044;-96
2023/07/07 01:10:50;;;;;;;;;;;;;;;;;;;;;
2023/07/07 01:13:23;;;;;;;9.77;4.95;;;;;;;;;;4882259;29;20397;-95
2023/07/07 01:16:11;;;;;;;;;;;;;;;;;;;;;
2023/07/07 01:18:52;;;;;;;9.35;4.78;;;;;;;;;;4940712;29;20111;-96
2023/07/07 01:21:35;;;;;;;8.50;4.72;;;;;;;;;;4926643;29;20035;-95
2023/07/07 01:24:24;;;;;;;8.68;5.00;;;;;;;;;;4922407;29;20063;-95
2023/07/07 01:35:00;;;;;;;;;;;;;;;;;;;;;
2023/07/07 01:37:30;;;;;;;9.85;5.40;;;;;;;;;;4940799;29;20103;-95
2023/07/07 01:40:05;;;;;;;9.52;5.45;;;;;;;;;;4924776;29;20055;-95
2023/07/07 01:42:59;;;;;;;;;;;;;;;;;;;;;
2023/07/07 01:45:47;;;;;;;9.23;5.05;;;;;;;;;;4947273;29;20103;-94
2023/07/07 01:48:26;;;;;;;9.48;4.70;;;;;;;;;;4930994;29;20032;-95
2023/07/07 01:54:28;;;;;;;;;;;;;;;;;;;;;
2023/07/07 01:57:38;;;;;;;;;;;;;;;;;;;;;
2023/07/07 02:00:34;;;;;;;10.80;5.60;;;;;;;;;;4884193;29;20025;-95
2023/07/07 02:03:11;;;;;;;;;;;;;;;;;;;;;
2023/07/07 02:05:49;;;;;;;11.82;5.70;;;;;;;;;;4927144;29;20118;-94
2023/07/07 02:08:24;;;;;;;10.02;5.18;;;;;;;;;;4909119;29;20115;-95
2023/07/07 02:11:06;;;;;;;10.23;5.28;;;;;;;;;;4909067;29;20123;-93
2023/07/07 02:16:45;;;;;;;8.63;5.07;;;;;;;;;;4885409;29;20089;-95
2023/07/07 02:19:14;;;;;;;10.55;5.30;;;;;;;;;;4867169;29;20033;-94
2023/07/07 02:21:55;;;;;;;10.32;5.78;;;;;;;;;;4867946;29;20025;-96
2023/07/07 02:24:21;;;;;;;8.80;5.28;;;;;;;;;;4868540;29;20060;-95
2023/07/07 02:26:58;;;;;;;9.82;5.00;;;;;;;;;;4868762;29;20060;-94
2023/07/07 02:29:30;;;;;;;10.60;5.30;;;;;;;;;;4870798;29;20049;-94
2023/07/07 02:35:01;;;;;;;8.35;5.20;;;;;;;;;;4846570;29;20391;-95
2023/07/07 02:37:39;;;;;;;9.13;5.40;;;;;;;;;;4846443;29;20030;-94
2023/07/07 02:40:23;;;;;;;10.45;5.45;;;;;;;;;;4865922;29;20029;-94
2023/07/07 02:42:49;;;;;;;;;;;;;;;;;;4866157;29;20033;-93
2023/07/07 02:54:29;;;;;;;;;;;;;;;;;;;;;
2023/07/07 02:57:05;;;;;;;;;;;;;;;;;;;;;
2023/07/07 02:59:45;;;;;;;;;;;;;;;;;;;;;
2023/07/07 03:02:34;;;;;;;7.97;5.30;;;;;;;;;;4925375;29;20123;-96
2023/07/07 03:05:03;;;;;;;13.43;5.60;;;;;;;;;;4907965;29;20048;-96
2023/07/07 03:07:52;;;;;;;10.75;5.43;;;;;;;;;;4908236;29;20084;-94
2023/07/07 03:10:45;;;;;;;10.82;5.93;;;;;;;;;;4905905;29;20036;-95
2023/07/07 03:13:21;;;;;;;;;;;;;;;;;;;;;
2023/07/07 03:15:50;;;;;;;8.95;5.18;;;;;;;;;;4922026;29;20023;-96
2023/07/07 03:24:21;;;;;;;9.85;5.50;;;;;;;;;;4925097;29;20047;-96
2023/07/07 03:27:13;;;;;;;9.88;5.25;;;;;;;;;;4912322;29;20044;-96
2023/07/07 03:29:45;;;;;;;12.68;5.50;;;;;;;;;;4906166;29;20024;-96
2023/07/07 03:32:12;;;;;;;10.20;5.47;;;;;;;;;;4906331;29;20032;-96
2023/07/07 03:34:59;;;;;;;8.32;5.03;;;;;;;;;;4936010;23;20052;-96
2023/07/07 03:37:50;;;;;;;;;;;;;;;;;;;;;
2023/07/07 03:40:20;;;;;;;12.18;5.18;;;;;;;;;;4922807;29;20122;-96
2023/07/07 03:42:59;;;;;;;9.73;5.70;;;;;;;;;;4907528;29;20035;-96
2023/07/07 03:45:35;;;;;;;11.20;5.53;;;;;;;;;;4906342;29;20383;-96
2023/07/07 03:48:01;;;;;;;10.40;5.22;;;;;;;;;;4907371;29;20027;-95
2023/07/07 03:50:33;;;;;;;11.38;6.18;;;;;;;;;;4907506;29;20108;-95
2023/07/07 03:53:05;;;;;;;11.95;5.70;;;;;;;;;;4904870;29;20024;-94
2023/07/07 03:55:34;;;;;;;8.07;5.35;;;;;;;;;;4976111;23;20070;-94
2023/07/07 03:58:01;;;;;;;10.82;6.05;;;;;;;;;;4942562;29;20023;-95
2023/07/07 04:00:51;;;;;;;14.95;5.57;;;;;;;;;;4943939;29;20042;-95
2023/07/07 04:03:30;;;;;;;;;;;;;;;;;;;;;
2023/07/07 04:06:10;;;;;;;;;;;;;;;;;;;;;
2023/07/07 04:09:11;;;;;;;10.35;5.75;;;;;;;;;;4961021;29;20098;-95
2023/07/07 04:14:55;;;;;;;10.68;5.82;;;;;;;;;;4960839;29;20034;-94
2023/07/07 04:17:27;;;;;;;9.88;5.93;;;;;;;;;;4943176;29;20027;-95
2023/07/07 04:20:23;;;;;;;9.82;5.75;;;;;;;;;;4942494;29;20450;-95
2023/07/07 04:23:16;;;;;;;7.85;5.70;;;;;;;;;;4942933;29;20093;-96
2023/07/07 04:26:14;;;;;;;10.00;6.03;;;;;;;;;;4933593;28;20078;-94
2023/07/07 04:28:58;;;;;;;8.23;5.57;;;;;;;;;;4924994;29;20035;-94
2023/07/07 04:32:00;;;;;;;;;;;;;;;;;;;;;
2023/07/07 04:34:30;;;;;;;8.02;5.53;;;;;;;;;;4938280;29;20042;-95
2023/07/07 04:37:19;;;;;;;;;;;;;;;;;;;;;
2023/07/07 04:40:06;;;;;;;8.27;5.05;;;;;;;;;;4907103;29;20152;-95
2023/07/07 04:46:09;;;;;;;;;;;;;;;;;;;;;
2023/07/07 05:03:24;;;;;;;;;;;;;;;;;;4845463;29;20053;-95
2023/07/07 05:06:26;;;;;;;;;;;;;;;;;;;;;
2023/07/07 05:09:00;;;;;;;7.18;4.28;;;;;;;;;;4919575;29;20038;-95
2023/07/07 05:11:56;;;;;;;8.23;4.10;;;;;;;;;;4902999;29;20032;-96
2023/07/07 05:14:37;;;;;;;7.43;4.60;;;;;;;;;;4903399;29;20032;-96
2023/07/07 05:20:53;;;;;;;5.53;4.28;;;;;;;;;;4845432;29;20037;-94
2023/07/07 05:26:51;;;;;;;7.85;3.92;;;;;;;;;;5012939;23;20436;-94
2023/07/07 05:32:35;;;;;;;7.78;3.85;;;;;;;;;;5179504;23;20417;-96
2023/07/07 05:35:27;;;;;;;5.57;3.72;;;;;;;;;;4940948;29;20042;-96
2023/07/07 05:57:04;;;;;;;;;;;;;;;;;;;;;
2023/07/07 06:12:09;;;;;;;8.05;3.13;;;;;;;;;;4726416;30;20092;-95
2023/07/07 06:26:08;;;;;;;3.30;2.47;;;;;;;;;;5158672;23;20067;-94
2023/07/07 07:55:17;;;;;;;;;;;;;;;;;;;;;
2023/07/07 08:04:23;;;;;;;;;;;;;;;;;;;;;
2023/07/07 08:06:59;;;;;;;5.18;2.50;;;;;;;;;;4848257;29;20404;-95
2023/07/07 08:09:53;;;;;;;4.88;2.13;;;;;;;;;;4827594;29;20046;-95
2023/07/07 08:12:55;;;;;;;;;;;;;;;;;;;;;
2023/07/07 08:19:02;;;;;;;3.70;2.20;;;;;;;;;;4797021;29;20043;-95
2023/07/07 08:22:05;;;;;;;;;;;;;;;;;;;;;
2023/07/07 08:27:35;;;;;;;5.15;1.88;;;;;;;;;;4846588;29;20078;-96
2023/07/07 08:33:37;;;;;;;4.03;2.22;;;;;;;;;;4942885;23;20582;-96
2023/07/07 08:39:29;;;;;;;4.70;2.60;;;;;;;;;;4883544;29;20115;-95
2023/07/07 08:44:56;;;;;;;4.47;1.90;;;;;;;;;;4891991;29;20049;-96
2023/07/07 08:47:49;;;;;;;4.15;2.08;;;;;;;;;;4872845;29;20041;-96
2023/07/07 08:50:59;;;;;;;4.60;1.92;;;;;;;;;;4880022;29;20112;-96
2023/07/07 08:53:45;;;;;;;16.58;2.38;;;;;;;;;;4767599;30;20052;-96
2023/07/07 08:56:26;;;;;;;5.18;1.75;;;;;;;;;;4756184;30;20036;-94
2023/07/07 08:59:10;;;;;;;5.60;2.30;;;;;;;;;;4779513;30;20055;-95
2023/07/07 09:01:52;;;;;;;5.30;2.30;;;;;;;;;;4780417;29;20036;-95
2023/07/07 09:04:50;;;;;;;;;;;;;;;;;;;;;
2023/07/07 09:07:43;;;;;;;5.20;2.15;;;;;;;;;;4827123;29;20041;-95
2023/07/07 09:10:12;;;;;;;4.65;1.90;;;;;;;;;;4853112;29;20057;-94
2023/07/07 09:12:38;;;;;;;7.03;2.60;;;;;;;;;;4936858;29;20048;-93
2023/07/07 09:15:17;;;;;;;3.90;2.03;;;;;;;;;;4923923;29;20027;-95
2023/07/07 09:17:46;;;;;;;3.78;1.90;;;;;;;;;;4943769;29;20031;-95
2023/07/07 09:20:24;;;;;;;3.25;2.10;;;;;;;;;;4925768;29;20039;-93
2023/07/07 09:23:09;;;;;;;5.43;1.90;;;;;;;;;;4924855;29;20039;-95
2023/07/07 09:29:00;;;;;;;3.20;2.22;;;;;;;;;;4883608;29;20062;-96
2023/07/07 09:35:04;;;;;;;;;;;;;;;;;;;;;
2023/07/07 09:37:53;;;;;;;3.63;2.30;;;;;;;;;;4925339;29;20096;-95
2023/07/07 09:43:41;;;;;;;;;;;;;;;;;;;;;
2023/07/07 10:08:33;;;;;;;6.95;2.58;;;;;;;;;;4745782;30;20050;-96
2023/07/07 10:11:34;;;;;;;;;;;;;;;;;;;;;
2023/07/07 10:14:24;;;;;;;;;;;;;;;;;;;;;
2023/07/07 10:22:22;;;;;;;3.50;2.30;;;;;;;;;;4884613;29;20622;-96
2023/07/07 10:25:32;;;;;;;4.10;2.22;;;;;;;;;;4872591;29;20037;-95
2023/07/07 10:31:22;;;;;;;3.42;2.28;;;;;;;;;;4774270;30;20055;-94
2023/07/07 10:34:30;;;;;;;3.92;2.22;;;;;;;;;;4776856;30;20147;-94
2023/07/07 10:41:01;;;;;;;;;;;;;;;;;;;;;
2023/07/07 10:43:39;;;;;;;;;;;;;;;;;;;;;
2023/07/07 10:57:53;;;;;;;;;;;;;;;;;;;;;
2023/07/07 11:00:41;;;;;;;4.82;2.35;;;;;;;;;;4904791;29;20556;-95
2023/07/07 11:03:30;;;;;;;5.00;2.53;;;;;;;;;;5002555;23;20057;-95
2023/07/07 11:05:58;;;;;;;3.67;2.47;;;;;;;;;;4886173;29;20076;-96
2023/07/07 11:23:42;;;;;;;4.43;2.55;;;;;;;;;;5664212;23;20040;-95
2023/07/07 11:29:58;;;;;;;3.50;2.40;;;;;;;;;;4949270;28;20575;-96
2023/07/07 11:38:46;;;;;;;5.18;2.50;;;;;;;;;;4995178;23;20146;-96
2023/07/07 11:41:17;;;;;;;6.45;2.42;;;;;;;;;;4944850;29;20506;-96
2023/07/07 11:43:59;;;;;;;;;;;;;;;;;;;;;
2023/07/07 11:46:58;;;;;;;4.88;2.92;;;;;;;;;;4962819;29;20122;-95
2023/07/07 12:00:59;;;;;;;5.38;2.55;;;;;;;;;;4942287;23;20050;-95
2023/07/07 12:03:28;;;;;;;;;;;;;;;;;;4911113;29;20032;-94
2023/07/07 12:05:59;;;;;;;4.90;2.65;;;;;;;;;;4902927;29;19916;-96
2023/07/07 12:09:06;;;;;;;;;;;;;;;;;;;;;
2023/07/07 12:11:55;;;;;;;5.50;2.47;;;;;;;;;;4901030;29;20029;-94
2023/07/07 12:14:45;;;;;;;4.10;2.60;;;;;;;;;;4885187;29;20029;-93
2023/07/07 12:18:02;;;;;;;5.70;2.47;;;;;;;;;;4869554;29;20177;-94
2023/07/07 12:23:32;;;;;;;5.50;2.20;;;;;;;;;;4858659;29;20041;-95
2023/07/07 12:26:25;;;;;;;3.38;2.25;;;;;;;;;;4866974;29;20115;-94
2023/07/07 12:31:58;;;;;;;;;;;;;;;;;;4851013;29;20021;-94
2023/07/07 12:54:28;;;;;;;;;;;;;;;;;;;;;
2023/07/07 13:00:12;;;;;;;3.92;2.28;;;;;;;;;;4966929;29;20042;-95
2023/07/07 13:48:37;;;;;;;4.60;1.75;;;;;;;;;;5767054;23;20051;-93
2023/07/07 14:03:32;;;;;;;;;;;;;;;;;;;;;
2023/07/07 14:06:36;;;;;;;3.28;1.73;;;;;;;;;;4872670;29;20011;-96
2023/07/07 14:18:42;;;;;;;2.95;1.80;;;;;;;;;;4931981;29;20114;-96
2023/07/07 14:21:23;;;;;;;2.83;1.60;;;;;;;;;;4905555;29;20036;-96
2023/07/07 14:27:18;;;;;;;3.08;1.75;;;;;;;;;;4796560;29;20536;-96
2023/07/07 14:30:05;;;;;;;4.15;1.80;;;;;;;;;;4782961;30;20481;-96
2023/07/07 14:32:39;;;;;;;3.40;1.90;;;;;;;;;;4778903;30;20036;-96
2023/07/07 14:47:15;;;;;;;;;;;;;;;;;;;;;
2023/07/07 14:53:38;;;;;;;4.93;1.73;;;;;;;;;;4899310;29;20064;-95
2023/07/07 14:56:53;;;;;;;3.63;1.67;;;;;;;;;;4920810;29;20036;-96
2023/07/07 15:02:57;;;;;;;4.45;1.67;;;;;;;;;;4885809;29;20037;-96
2023/07/07 15:05:33;;;;;;;4.13;1.90;;;;;;;;;;4892875;29;20422;-96
2023/07/07 15:17:27;;;;;;;3.38;1.90;;;;;;;;;;4906695;29;20061;-95
2023/07/07 15:20:24;;;;;;;3.28;1.90;;;;;;;;;;4888486;29;20128;-95
2023/07/07 15:22:50;;;;;;;4.80;1.63;;;;;;;;;;4874956;29;20048;-94
2023/07/07 15:25:20;;;;;;;3.45;1.80;;;;;;;;;;4898163;29;20047;-96
2023/07/07 15:27:57;;;;;;;3.50;2.00;;;;;;;;;;4911615;29;20033;-96
2023/07/07 15:33:58;;;;;;;4.57;2.00;;;;;;;;;;4930447;29;20053;-96
2023/07/07 19:09:29;;;;;;;11.32;3.58;;;;;;;;;;4889593;29;20468;-94
2023/07/07 19:17:09;;;;;;;;;;;;;;;;;;;;;
2023/07/07 19:20:23;;;;;;;10.80;3.50;;;;;;;;;;4868266;29;20054;-95
2023/07/07 19:32:01;;;;;;;7.97;3.17;;;;;;;;;;4941643;29;20083;-93
2023/07/07 19:40:04;;;;;;;6.43;3.50;;;;;;;;;;5162769;23;20044;-94
2023/07/07 19:53:19;;;;;;;8.35;3.25;;;;;;;;;;5641854;23;20146;-93
2023/07/07 20:01:49;;;;;;;8.10;3.28;;;;;;;;;;4969587;23;20055;-93
2023/07/07 20:04:18;;;;;;;6.80;3.17;;;;;;;;;;4874157;29;20130;-93
2023/07/07 20:09:33;;;;;;;9.15;3.35;;;;;;;;;;4907422;29;20079;-92
2023/07/07 20:12:04;;;;;;;6.20;3.30;;;;;;;;;;4902052;29;20024;-91
2023/07/07 20:54:12;;;;;;;5.07;3.10;;;;;;;;;;5465549;23;20034;-93
2023/07/07 20:56:46;;;;;;;4.35;2.90;;;;;;;;;;4935512;29;20056;-93
2023/07/07 20:59:59;;;;;;;5.25;3.03;;;;;;;;;;4914427;29;20044;-94
2023/07/07 21:05:09;;;;;;;7.97;3.33;;;;;;;;;;5011174;23;20420;-94
2023/07/07 21:07:38;;;;;;;4.30;2.97;;;;;;;;;;4944733;28;20095;-94
2023/07/07 21:10:17;;;;;;;6.75;3.08;;;;;;;;;;5011027;23;20059;-94
2023/07/07 21:12:58;;;;;;;8.23;3.13;;;;;;;;;;4940312;29;20036;-94
2023/07/07 21:15:31;;;;;;;8.75;2.85;;;;;;;;;;4941033;29;20032;-91
2023/07/07 21:29:49;;;;;;;7.43;3.28;;;;;;;;;;4942757;29;20389;-92
2023/07/07 21:32:15;;;;;;;11.30;3.15;;;;;;;;;;4924587;29;20071;-92
2023/07/07 21:43:22;;;;;;;10.52;3.33;;;;;;;;;;4845986;29;20115;-92
2023/07/07 21:45:58;;;;;;;7.13;3.13;;;;;;;;;;4845993;29;20050;-93
2023/07/07 21:48:27;;;;;;;7.45;3.45;;;;;;;;;;4873160;29;20036;-93
2023/07/07 21:50:59;;;;;;;5.65;3.38;;;;;;;;;;4918304;29;20052;-94
2023/07/07 21:56:03;;;;;;;5.55;3.08;;;;;;;;;;4927292;29;20060;-93
2023/07/07 22:07:50;;;;;;;6.25;3.20;;;;;;;;;;4927120;29;20044;-94
2023/07/07 22:10:31;;;;;;;6.95;3.40;;;;;;;;;;4907493;29;20036;-92
2023/07/07 22:18:34;;;;;;;5.23;3.13;;;;;;;;;;4944072;29;20082;-93
2023/07/07 22:21:07;;;;;;;5.82;3.63;;;;;;;;;;4925903;29;20038;-94
2023/07/07 22:23:39;;;;;;;6.18;3.50;;;;;;;;;;4930549;29;20020;-94
2023/07/07 22:26:24;;;;;;;6.63;3.40;;;;;;;;;;4928676;29;20101;-93
2023/07/07 22:28:54;;;;;;;5.03;3.10;;;;;;;;;;4920682;29;20028;-94
2023/07/07 22:31:23;;;;;;;10.95;3.40;;;;;;;;;;4925843;29;20466;-94
2023/07/07 22:33:52;;;;;;;5.03;3.00;;;;;;;;;;4926835;29;20066;-95
2023/07/07 22:36:26;;;;;;;6.35;3.40;;;;;;;;;;4927029;29;20440;-93
2023/07/07 22:38:55;;;;;;;8.50;3.70;;;;;;;;;;4927540;29;20028;-94
2023/07/07 22:41:28;;;;;;;7.50;3.40;;;;;;;;;;4926223;29;20036;-94
2023/07/07 22:44:03;;;;;;;5.32;3.22;;;;;;;;;;4924806;29;20118;-94
2023/07/07 22:46:53;;;;;;;7.43;3.38;;;;;;;;;;4924201;29;20063;-94
2023/07/07 22:49:23;;;;;;;6.20;3.58;;;;;;;;;;4931969;29;20488;-94
2023/07/07 22:51:50;;;;;;;7.43;3.72;;;;;;;;;;4926735;29;20044;-93
2023/07/07 22:54:22;;;;;;;5.85;3.60;;;;;;;;;;4924067;29;20106;-93
2023/07/07 22:56:51;;;;;;;8.35;3.70;;;;;;;;;;4923520;29;20040;-94
2023/07/07 22:59:30;;;;;;;7.78;3.63;;;;;;;;;;4923142;29;20485;-94
2023/07/07 23:02:18;;;;;;;8.05;4.15;;;;;;;;;;4923548;29;20063;-92
2023/07/07 23:07:56;;;;;;;10.00;3.63;;;;;;;;;;4913456;29;20031;-93
2023/07/07 23:10:25;;;;;;;7.30;3.80;;;;;;;;;;4884241;29;20055;-94
2023/07/07 23:12:55;;;;;;;7.63;4.22;;;;;;;;;;4907973;29;20028;-93
2023/07/07 23:15:32;;;;;;;6.47;3.80;;;;;;;;;;4887032;29;20557;-93
2023/07/07 23:18:12;;;;;;;7.00;3.85;;;;;;;;;;4901225;29;20056;-93
2023/07/07 23:20:43;;;;;;;6.38;3.90;;;;;;;;;;4863957;29;20045;-93
2023/07/07 23:26:04;;;;;;;5.63;3.35;;;;;;;;;;4960089;23;20146;-94
2023/07/07 23:28:36;;;;;;;6.78;3.53;;;;;;;;;;4904146;29;20025;-95
2023/07/07 23:31:08;;;;;;;7.40;3.83;;;;;;;;;;4904419;29;20028;-94
2023/07/07 23:33:38;;;;;;;5.70;3.63;;;;;;;;;;4904668;29;20036;-94
2023/07/07 23:36:30;;;;;;;9.27;3.78;;;;;;;;;;4904462;29;20028;-93
2023/07/07 23:39:15;;;;;;;5.78;4.03;;;;;;;;;;4837162;29;20042;-93
2023/07/07 23:41:54;;;;;;;5.22;3.67;;;;;;;;;;4829120;29;20034;-94
2023/07/07 23:44:24;;;;;;;6.95;4.07;;;;;;;;;;4830831;29;20049;-94
2023/07/07 23:47:02;;;;;;;7.32;3.95;;;;;;;;;;4829289;29;20042;-93
2023/07/07 23:49:41;;;;;;;7.18;3.92;;;;;;;;;;4849799;29;20043;-93
2023/07/07 23:52:13;;;;;;;5.93;3.70;;;;;;;;;;4886523;29;20033;-94
2023/07/07 23:54:43;;;;;;;6.15;3.50;;;;;;;;;;4884374;29;20036;-94
2023/07/07 23:57:27;;;;;;;9.90;4.63;;;;;;;;;;4884919;29;20031;-94
2023/07/07 23:59:56;;;;;;;7.57;4.40;;;;;;;;;;4892456;29;20390;-93
